YBOO weather

Catholic Agricultural College Bindoon Airstrip
Western Australia, Australia

Public forecast

Using degrees Celsius for public forecast. Weather courtesy of forecast.io.

METAR (pilot weather report)

Closest report is RAAF Base Pearce, 21.6 nm (39.9 km) SSW. Retrieved 2019/03/25 14:30 UTC (46 seconds ago):

YPEA 251430Z AUTO 09007KT 9999 // NCD 23/02 Q1018

TAF (pilot weather forecast)

Closest forecast is RAAF Base Pearce, 21.6 nm (39.9 km) SSW. Retrieved 2019/03/25 12:00 UTC (3 hours ago):

TAF YPEA 251002Z 2512/2606 09014KT CAVOK FM251600 08016G26KT CAVOK FM260100 05012KT CAVOK